Time;durP1;ratioP1;P1;durP2;ratioP2;P2;SDS_P1;SDS_P2;PMS_P1;PMS_P2;Temp;Humidity;BMP_temperature;BMP_pressure;BME280_temperature;BME280_humidity;BME280_pressure;Samples;Min_cycle;Max_cycle;Signal;HPM_P1;HPM_P2
2022/11/30 00:01:51;;;;;;;11.37;9.73;;;6.10;99.90;;;;;;5074539;28;20210;-89
2022/11/30 00:04:18;;;;;;;11.83;9.70;;;6.20;99.90;;;;;;5074064;28;20202;-87
2022/11/30 00:06:45;;;;;;;11.40;9.93;;;6.20;99.90;;;;;;5074282;28;20214;-86
2022/11/30 00:09:12;;;;;;;12.03;9.70;;;6.20;99.90;;;;;;5074499;28;20649;-88
2022/11/30 00:11:39;;;;;;;10.97;9.63;;;6.30;99.90;;;;;;5074922;28;20201;-85
2022/11/30 00:14:10;;;;;;;10.87;9.53;;;6.30;99.90;;;;;;5074564;28;20287;-87
2022/11/30 00:16:42;;;;;;;10.20;9.00;;;6.30;99.90;;;;;;5074465;28;20201;-90
2022/11/30 00:19:09;;;;;;;10.93;9.23;;;6.30;99.90;;;;;;5074235;28;20280;-86
2022/11/30 00:21:36;;;;;;;10.20;9.20;;;6.40;99.90;;;;;;5074499;28;20212;-89
2022/11/30 00:24:05;;;;;;;13.63;10.33;;;6.50;99.90;;;;;;5073631;28;20206;-88
2022/11/30 00:26:32;;;;;;;10.57;9.37;;;6.40;99.90;;;;;;5073762;28;20209;-84
2022/11/30 00:28:59;;;;;;;12.50;9.63;;;6.40;99.90;;;;;;5074170;28;20567;-85
2022/11/30 00:31:27;;;;;;;10.87;9.20;;;6.50;99.90;;;;;;5074951;28;20209;-85
2022/11/30 00:33:57;;;;;;;11.53;8.63;;;6.40;99.90;;;;;;5076882;28;20240;-85
2022/11/30 00:36:24;;;;;;;9.47;8.47;;;6.40;99.90;;;;;;5077818;28;20644;-87
2022/11/30 00:38:54;;;;;;;9.57;8.63;;;6.40;99.90;;;;;;5078212;28;20205;-84
2022/11/30 00:41:21;;;;;;;10.50;9.40;;;6.50;99.90;;;;;;5078307;28;20272;-89
2022/11/30 00:43:59;;;;;;;13.07;9.07;;;6.50;99.90;;;;;;5077689;28;20214;-87
2022/11/30 00:46:30;;;;;;;9.93;8.90;;;6.50;99.90;;;;;;5088298;28;20196;-88
2022/11/30 00:48:59;;;;;;;9.03;8.13;;;6.50;99.90;;;;;;5080318;28;20209;-85
2022/11/30 00:51:26;;;;;;;12.27;9.80;;;6.40;99.90;;;;;;5078140;28;20220;-88
2022/11/30 00:53:52;;;;;;;11.90;9.47;;;6.50;99.90;;;;;;5077223;28;20711;-89
2022/11/30 00:56:19;;;;;;;9.27;8.27;;;6.60;99.90;;;;;;5077647;28;20198;-84
2022/11/30 00:58:47;;;;;;;9.80;8.40;;;6.50;99.90;;;;;;5076862;28;20760;-90
2022/11/30 01:01:13;;;;;;;9.33;8.43;;;6.30;99.90;;;;;;5077365;28;20571;-89
2022/11/30 01:03:42;;;;;;;9.83;8.80;;;6.30;99.90;;;;;;5077123;28;20200;-91
2022/11/30 01:06:12;;;;;;;9.60;8.60;;;6.20;99.90;;;;;;5090442;28;20255;-88
2022/11/30 01:08:45;;;;;;;10.47;9.33;;;6.20;99.90;;;;;;5077441;28;20205;-87
2022/11/30 01:11:16;;;;;;;9.83;8.83;;;6.30;99.90;;;;;;5077501;28;20285;-91
2022/11/30 01:13:43;;;;;;;11.17;8.97;;;6.40;99.90;;;;;;5077722;28;20285;-85
2022/11/30 01:16:15;;;;;;;11.03;9.20;;;6.50;99.90;;;;;;5077213;28;20212;-79
2022/11/30 01:18:45;;;;;;;11.20;9.67;;;6.60;99.90;;;;;;5076392;28;20724;-81
2022/11/30 01:21:15;;;;;;;11.37;9.27;;;6.50;99.90;;;;;;5076838;28;20206;-78
2022/11/30 01:23:42;;;;;;;13.20;9.13;;;6.50;99.90;;;;;;5076705;28;20205;-79
2022/11/30 01:26:09;;;;;;;11.93;9.40;;;6.40;99.90;;;;;;5076439;28;20572;-84
2022/11/30 01:28:39;;;;;;;10.97;9.63;;;6.30;99.90;;;;;;5076274;28;20241;-79
2022/11/30 01:31:09;;;;;;;11.33;9.30;;;6.10;99.90;;;;;;5076437;28;20202;-89
2022/11/30 01:33:36;;;;;;;11.47;9.63;;;6.10;99.90;;;;;;5076873;28;20205;-86
2022/11/30 01:36:09;;;;;;;11.97;9.63;;;6.10;99.90;;;;;;5077518;28;20202;-86
2022/11/30 01:38:37;;;;;;;12.47;10.00;;;6.10;99.90;;;;;;5077464;28;20213;-93
2022/11/30 01:41:06;;;;;;;14.77;11.13;;;6.30;99.90;;;;;;5077569;28;20206;-83
2022/11/30 01:43:43;;;;;;;13.60;10.97;;;6.30;99.90;;;;;;5077159;28;20240;-87
2022/11/30 01:46:34;;;;;;;18.67;11.67;;;6.30;99.90;;;;;;5076517;28;20210;-79
2022/11/30 01:49:14;;;;;;;14.83;10.83;;;6.40;99.90;;;;;;5073267;28;20194;-79
2022/11/30 01:51:48;;;;;;;17.00;11.53;;;6.40;99.90;;;;;;5075380;28;20202;-80
2022/11/30 01:54:18;;;;;;;15.43;11.53;;;6.50;99.90;;;;;;5074787;28;20216;-80
2022/11/30 01:56:48;;;;;;;17.23;11.20;;;6.60;99.90;;;;;;5075127;28;20210;-79
2022/11/30 01:59:16;;;;;;;17.50;12.50;;;6.30;99.90;;;;;;5089403;28;20228;-79
2022/11/30 02:01:44;;;;;;;17.87;12.87;;;6.40;99.90;;;;;;5074841;28;20213;-78
2022/11/30 02:04:16;;;;;;;16.17;12.13;;;6.40;99.90;;;;;;5075179;28;20202;-80
2022/11/30 02:06:51;;;;;;;17.30;12.27;;;6.30;99.90;;;;;;5089152;28;21143;-85
2022/11/30 02:09:22;;;;;;;16.67;12.20;;;6.40;99.90;;;;;;5075266;28;20209;-81
2022/11/30 02:11:50;;;;;;;16.67;12.73;;;6.40;99.90;;;;;;5075164;28;20190;-80
2022/11/30 02:14:28;;;;;;;17.30;12.53;;;6.50;99.90;;;;;;5075475;28;20221;-79
2022/11/30 02:17:06;;;;;;;18.83;13.70;;;6.60;99.90;;;;;;5076068;28;20213;-80
2022/11/30 02:20:05;;;;;;;18.67;13.73;;;6.60;99.90;;;;;;5074544;28;20201;-81
2022/11/30 02:22:54;;;;;;;24.48;19.77;;;6.70;99.90;;;;;;5074380;28;20420;-89
2022/11/30 02:25:51;;;;;;;19.07;14.23;;;6.90;99.90;;;;;;5076914;28;20194;-87
2022/11/30 02:28:45;;;;;;;19.93;13.43;;;6.80;99.90;;;;;;5075798;28;20202;-87
2022/11/30 02:31:23;;;;;;;23.77;18.50;;;6.70;99.90;;;;;;5074279;28;20439;-90
2022/11/30 02:33:53;;;;;;;21.40;14.63;;;6.70;99.90;;;;;;5075722;28;20456;-89
2022/11/30 02:36:21;;;;;;;20.53;13.20;;;6.70;99.90;;;;;;5074926;28;20216;-89
2022/11/30 02:38:49;;;;;;;17.33;13.00;;;6.50;99.90;;;;;;5075126;28;20205;-88
2022/11/30 02:41:17;;;;;;;20.13;13.30;;;6.50;99.90;;;;;;5075175;28;20206;-91
2022/11/30 02:43:44;;;;;;;19.20;13.87;;;6.70;99.90;;;;;;5074886;28;20556;-87
2022/11/30 02:46:16;;;;;;;17.90;13.10;;;6.50;99.90;;;;;;5075561;28;20202;-86
2022/11/30 02:48:56;;;;;;;19.97;14.07;;;6.60;99.90;;;;;;5075385;28;20186;-90
2022/11/30 02:51:31;;;;;;;16.50;12.47;;;6.50;99.90;;;;;;5075329;28;20279;-90
2022/11/30 02:54:04;;;;;;;24.27;19.47;;;6.70;99.90;;;;;;5073435;28;20456;-87
2022/11/30 02:56:50;;;;;;;18.23;14.37;;;6.80;99.90;;;;;;5075418;28;20201;-89
2022/11/30 02:59:23;;;;;;;19.23;14.10;;;6.80;99.90;;;;;;5074830;28;20218;-87
2022/11/30 03:01:50;;;;;;;16.80;12.93;;;7.00;99.90;;;;;;5074771;28;20209;-88
2022/11/30 03:04:22;;;;;;;19.70;13.40;;;7.10;99.90;;;;;;5087815;28;20212;-89
2022/11/30 03:06:56;;;;;;;17.83;12.73;;;7.10;99.90;;;;;;5074699;28;20282;-88
2022/11/30 03:09:28;;;;;;;23.83;18.63;;;7.20;99.90;;;;;;5074604;28;20435;-88
2022/11/30 03:11:57;;;;;;;19.47;13.90;;;7.00;99.90;;;;;;5074532;28;20202;-89
2022/11/30 03:14:26;;;;;;;19.67;14.00;;;7.00;99.90;;;;;;5074905;28;20193;-90
2022/11/30 03:16:54;;;;;;;20.83;12.93;;;7.20;99.90;;;;;;5074626;28;20193;-87
2022/11/30 03:19:24;;;;;;;18.13;12.93;;;7.20;99.90;;;;;;5073678;28;20194;-86
2022/11/30 03:21:52;;;;;;;17.43;12.37;;;7.10;99.90;;;;;;5074214;28;20206;-81
2022/11/30 03:24:25;;;;;;;22.65;15.63;;;7.20;99.90;;;;;;5074348;28;20439;-88
2022/11/30 03:26:52;;;;;;;18.10;12.77;;;7.20;99.90;;;;;;5074763;28;20196;-91
2022/11/30 03:29:21;;;;;;;17.87;13.30;;;6.90;99.90;;;;;;5074739;28;20209;-88
2022/11/30 03:31:53;;;;;;;17.30;13.00;;;7.00;99.90;;;;;;5074237;28;20537;-85
2022/11/30 03:34:27;;;;;;;18.03;11.63;;;7.00;99.90;;;;;;5074332;28;20201;-91
2022/11/30 03:36:57;;;;;;;15.57;11.80;;;7.10;99.90;;;;;;5074300;28;20202;-88
2022/11/30 03:39:27;;;;;;;17.30;12.57;;;7.10;99.90;;;;;;5074700;28;20233;-89
2022/11/30 03:41:55;;;;;;;20.02;16.88;;;7.00;99.90;;;;;;5073017;28;20428;-86
2022/11/30 03:44:23;;;;;;;19.17;12.77;;;7.20;99.90;;;;;;5074546;28;20222;-87
2022/11/30 03:46:51;;;;;;;17.63;12.77;;;7.20;99.90;;;;;;5074427;28;20613;-84
2022/11/30 03:49:20;;;;;;;15.40;11.97;;;7.10;99.90;;;;;;5074490;28;20197;-91
2022/11/30 03:51:48;;;;;;;19.63;12.87;;;7.10;99.90;;;;;;5074140;28;20202;-87
2022/11/30 03:54:21;;;;;;;16.90;12.23;;;7.00;99.90;;;;;;5073832;28;20201;-89
2022/11/30 03:56:48;;;;;;;15.53;11.80;;;6.90;99.90;;;;;;5074013;28;20190;-91
2022/11/30 03:59:18;;;;;;;17.60;11.57;;;6.90;99.90;;;;;;5074134;28;20229;-89
2022/11/30 04:01:50;;;;;;;16.90;12.03;;;6.70;99.90;;;;;;5073778;28;20664;-89
2022/11/30 04:04:17;;;;;;;16.43;12.30;;;6.70;99.90;;;;;;5074438;28;20201;-90
2022/11/30 04:06:45;;;;;;;18.13;12.47;;;6.50;99.90;;;;;;5077494;28;20209;-90
2022/11/30 04:09:42;;;;;;;16.33;12.47;;;6.60;99.90;;;;;;5078502;28;20197;-87
2022/11/30 04:12:16;;;;;;;18.43;12.17;;;6.60;99.90;;;;;;5078732;28;20190;-92
2022/11/30 04:14:42;;;;;;;18.90;12.60;;;6.70;99.90;;;;;;5078467;28;20553;-86
2022/11/30 04:17:11;;;;;;;20.10;11.97;;;6.50;99.90;;;;;;5078081;28;20221;-90
2022/11/30 04:19:41;;;;;;;18.13;12.60;;;6.30;99.90;;;;;;5078756;28;20197;-87
2022/11/30 04:22:13;;;;;;;19.23;12.93;;;6.40;99.90;;;;;;5078857;28;20220;-90
2022/11/30 04:24:41;;;;;;;18.63;12.53;;;6.50;99.90;;;;;;5077914;28;20641;-84
2022/11/30 04:27:08;;;;;;;19.80;12.83;;;6.50;99.90;;;;;;5077477;28;20209;-82
2022/11/30 04:29:36;;;;;;;21.03;13.40;;;6.40;99.90;;;;;;5077509;28;20201;-84
2022/11/30 04:32:03;;;;;;;20.27;13.60;;;6.40;99.90;;;;;;5077591;28;20257;-83
2022/11/30 04:34:31;;;;;;;22.13;13.27;;;6.50;99.90;;;;;;5082494;28;20194;-87
2022/11/30 04:36:58;;;;;;;18.13;12.87;;;6.60;99.90;;;;;;5082824;28;20224;-84
2022/11/30 04:39:26;;;;;;;19.50;12.70;;;6.60;99.90;;;;;;5083842;28;20575;-85
2022/11/30 04:41:55;;;;;;;19.70;12.43;;;6.50;99.90;;;;;;5082786;28;20206;-86
2022/11/30 04:44:28;;;;;;;18.83;11.80;;;6.10;99.90;;;;;;5083928;28;20225;-82
2022/11/30 04:46:55;;;;;;;25.67;18.98;;;6.30;99.90;;;;;;5083387;28;20427;-85
2022/11/30 04:49:22;;;;;;;22.93;15.03;;;6.80;99.90;;;;;;5083799;28;20205;-87
2022/11/30 04:51:54;;;;;;;19.10;13.43;;;6.50;99.90;;;;;;5079051;28;20720;-89
2022/11/30 04:54:21;;;;;;;19.17;12.77;;;6.60;99.90;;;;;;5078029;28;20189;-91
2022/11/30 04:56:49;;;;;;;19.97;13.40;;;6.70;99.90;;;;;;5078194;28;20240;-85
2022/11/30 04:59:23;;;;;;;18.83;12.37;;;6.70;99.90;;;;;;5077375;28;20217;-86
2022/11/30 05:01:51;;;;;;;20.43;13.77;;;6.80;99.90;;;;;;5076950;28;20213;-87
2022/11/30 05:04:18;;;;;;;19.63;13.47;;;6.70;99.90;;;;;;5077294;28;20206;-89
2022/11/30 05:06:46;;;;;;;19.00;13.43;;;6.80;99.90;;;;;;5077229;28;20209;-84
2022/11/30 05:09:13;;;;;;;20.93;12.73;;;7.00;99.90;;;;;;5076777;28;20209;-87
2022/11/30 05:11:43;;;;;;;20.47;13.70;;;7.00;99.90;;;;;;5077208;28;20207;-88
2022/11/30 05:14:11;;;;;;;19.43;13.13;;;7.10;99.90;;;;;;5076758;28;20201;-86
2022/11/30 05:16:42;;;;;;;19.60;13.27;;;6.90;99.90;;;;;;5077150;28;20225;-92
2022/11/30 05:19:13;;;;;;;20.67;12.93;;;7.00;99.90;;;;;;5076461;28;20201;-86
2022/11/30 05:21:43;;;;;;;20.30;13.23;;;7.00;99.90;;;;;;5076906;28;20240;-90
2022/11/30 05:24:13;;;;;;;19.97;13.47;;;7.00;99.90;;;;;;5076624;28;20190;-85
2022/11/30 05:26:42;;;;;;;20.67;14.07;;;7.10;99.90;;;;;;5076453;28;20194;-88
2022/11/30 05:29:09;;;;;;;19.87;12.80;;;7.10;99.90;;;;;;5076959;28;20193;-89
2022/11/30 05:31:38;;;;;;;19.80;13.23;;;7.00;99.90;;;;;;5076685;28;20198;-86
2022/11/30 05:34:08;;;;;;;22.53;13.50;;;7.00;99.90;;;;;;5077167;28;20230;-89
2022/11/30 05:36:43;;;;;;;22.73;13.60;;;7.00;99.90;;;;;;5076667;28;20224;-91
2022/11/30 05:39:15;;;;;;;27.27;13.83;;;7.10;99.90;;;;;;5075920;28;20229;-86
2022/11/30 05:41:43;;;;;;;30.07;14.80;;;7.20;99.90;;;;;;5076735;28;20295;-88
2022/11/30 05:44:11;;;;;;;31.90;15.43;;;7.00;99.90;;;;;;5076310;28;20205;-86
2022/11/30 05:46:39;;;;;;;33.67;15.17;;;7.00;99.90;;;;;;5075953;28;20194;-91
2022/11/30 05:49:07;;;;;;;35.67;15.03;;;6.80;99.90;;;;;;5076282;28;20209;-84
2022/11/30 05:51:34;;;;;;;50.83;16.30;;;6.80;99.90;;;;;;5075368;28;20209;-88
2022/11/30 05:54:07;;;;;;;67.57;14.60;;;6.60;99.90;;;;;;5076196;28;20185;-90
2022/11/30 05:56:39;;;;;;;64.30;15.23;;;6.60;99.90;;;;;;5076229;28;20221;-84
2022/11/30 05:59:12;;;;;;;75.03;16.03;;;6.50;99.90;;;;;;5079061;28;20226;-85
2022/11/30 06:01:42;;;;;;;75.53;16.17;;;6.60;99.90;;;;;;5076917;28;20213;-84
2022/11/30 06:04:16;;;;;;;75.10;17.47;;;6.70;99.90;;;;;;5093127;28;20201;-88
2022/11/30 06:06:44;;;;;;;54.23;17.03;;;6.60;99.90;;;;;;5079705;28;20204;-87
2022/11/30 06:09:14;;;;;;;90.82;26.90;;;6.50;99.90;;;;;;5084318;28;20435;-88
2022/11/30 06:11:42;;;;;;;84.60;18.87;;;6.40;99.90;;;;;;5085355;28;20652;-87
2022/11/30 06:14:11;;;;;;;63.63;17.83;;;6.50;99.90;;;;;;5081724;28;20657;-91
2022/11/30 06:16:40;;;;;;;71.47;17.27;;;6.60;99.90;;;;;;5096260;28;20240;-84
2022/11/30 06:19:07;;;;;;;61.37;18.10;;;6.80;99.90;;;;;;5095956;28;20215;-88
2022/11/30 06:21:37;;;;;;;53.17;15.53;;;6.80;99.90;;;;;;5089649;28;20209;-88
2022/11/30 06:24:08;;;;;;;74.97;20.33;;;6.90;99.90;;;;;;5076473;28;20431;-85
2022/11/30 06:26:35;;;;;;;67.00;18.47;;;6.80;99.90;;;;;;5076006;28;20206;-84
2022/11/30 06:29:05;;;;;;;63.37;17.80;;;6.50;99.90;;;;;;5075641;28;20256;-88
2022/11/30 06:31:33;;;;;;;51.90;18.77;;;6.60;99.90;;;;;;5076240;28;20282;-90
2022/11/30 06:34:03;;;;;;;67.33;18.80;;;6.40;99.90;;;;;;5075071;28;20213;-88
2022/11/30 06:36:30;;;;;;;62.90;18.37;;;6.50;99.90;;;;;;5074549;28;20589;-86
2022/11/30 06:39:01;;;;;;;60.73;19.27;;;6.60;99.90;;;;;;5074877;28;20198;-88
2022/11/30 06:41:28;;;;;;;207.85;31.35;;;6.70;99.90;;;;;;5074666;28;20439;-88
2022/11/30 06:43:56;;;;;;;116.63;22.80;;;6.90;99.90;;;;;;5074818;28;20571;-84
2022/11/30 06:46:25;;;;;;;70.07;21.00;;;7.00;99.90;;;;;;5074458;28;20194;-86
2022/11/30 06:48:54;;;;;;;96.37;20.13;;;6.90;99.90;;;;;;5082931;28;20239;-88
2022/11/30 06:51:27;;;;;;;77.10;19.50;;;6.80;99.90;;;;;;5086105;28;20240;-90
2022/11/30 06:53:55;;;;;;;75.23;18.80;;;7.00;99.90;;;;;;5095354;28;20213;-90
2022/11/30 06:56:27;;;;;;;74.47;19.53;;;6.90;99.90;;;;;;5094627;28;20556;-89
2022/11/30 06:58:55;;;;;;;71.00;19.20;;;6.90;99.90;;;;;;5094794;28;20770;-86
2022/11/30 07:01:25;;;;;;;116.87;20.73;;;6.80;99.90;;;;;;5094691;28;20217;-91
2022/11/30 07:03:55;;;;;;;87.60;20.37;;;6.80;99.90;;;;;;5075116;28;20229;-89
2022/11/30 07:06:23;;;;;;;95.17;19.67;;;6.80;99.90;;;;;;5086298;28;20193;-89
2022/11/30 07:08:52;;;;;;;77.40;20.30;;;6.80;99.90;;;;;;5088651;28;20562;-88
2022/11/30 07:11:19;;;;;;;74.07;21.03;;;6.70;99.90;;;;;;5086333;28;20208;-86
2022/11/30 07:13:53;;;;;;;86.93;24.30;;;6.60;99.90;;;;;;5074201;28;20443;-88
2022/11/30 07:16:20;;;;;;;101.30;22.03;;;6.60;99.90;;;;;;5082314;28;20226;-85
2022/11/30 07:18:46;;;;;;;101.57;21.83;;;6.60;99.90;;;;;;5079953;28;20201;-85
2022/11/30 07:21:13;;;;;;;83.40;20.70;;;6.50;99.90;;;;;;5073210;28;20205;-88
2022/11/30 07:26:24;;;;;;;92.53;21.00;;;6.50;99.90;;;;;;5074524;28;20201;-87
2022/11/30 07:28:56;;;;;;;74.47;19.63;;;6.60;99.90;;;;;;5074106;28;20194;-85
2022/11/30 07:31:26;;;;;;;95.00;30.35;;;6.60;99.90;;;;;;5072932;28;20431;-87
2022/11/30 07:33:53;;;;;;;74.73;23.17;;;6.60;99.90;;;;;;5074130;28;20205;-92
2022/11/30 07:36:21;;;;;;;118.67;23.17;;;6.60;99.90;;;;;;5074312;28;20712;-88
2022/11/30 07:38:51;;;;;;;81.57;21.97;;;6.60;99.90;;;;;;5078929;28;20208;-85
2022/11/30 07:41:18;;;;;;;85.30;23.20;;;6.90;99.90;;;;;;5074213;28;20236;-86
2022/11/30 07:43:45;;;;;;;95.33;22.33;;;6.80;99.90;;;;;;5080441;28;20205;-84
2022/11/30 07:46:15;;;;;;;64.97;21.97;;;6.70;99.90;;;;;;5085662;28;20213;-88
2022/11/30 07:48:42;;;;;;;125.07;35.73;;;6.40;99.90;;;;;;5074040;28;20497;-86
2022/11/30 07:51:14;;;;;;;100.50;25.23;;;6.50;99.90;;;;;;5073826;28;20571;-83
2022/11/30 07:53:40;;;;;;;89.63;23.03;;;6.80;99.90;;;;;;5079067;28;20202;-87
2022/11/30 07:56:09;;;;;;;92.10;23.27;;;6.60;99.90;;;;;;5082092;28;20208;-90
2022/11/30 07:58:37;;;;;;;104.27;22.93;;;6.50;99.90;;;;;;5088065;28;20274;-86
2022/11/30 08:01:05;;;;;;;106.13;21.37;;;6.40;99.90;;;;;;5074535;28;20320;-86
2022/11/30 08:03:52;;;;;;;91.63;21.07;;;6.50;99.90;;;;;;5051024;27;20612;-86
2022/11/30 08:06:21;;;;;;;90.53;23.43;;;6.80;99.90;;;;;;5050167;28;20213;-87
2022/11/30 08:08:50;;;;;;;171.20;26.60;;;6.80;99.90;;;;;;5050877;28;20198;-91
2022/11/30 08:11:19;;;;;;;92.87;24.90;;;6.80;99.90;;;;;;5050387;28;20211;-88
2022/11/30 08:13:46;;;;;;;132.33;25.73;;;6.60;99.90;;;;;;5050714;28;20204;-89
2022/11/30 08:16:14;;;;;;;93.70;23.77;;;6.80;99.90;;;;;;5050545;28;20191;-83
2022/11/30 08:18:42;;;;;;;84.97;25.20;;;6.60;99.90;;;;;;5050897;28;20217;-87
2022/11/30 08:21:12;;;;;;;117.97;24.20;;;6.70;99.90;;;;;;5050640;28;20206;-92
2022/11/30 08:23:41;;;;;;;112.70;24.53;;;6.60;99.90;;;;;;5051348;28;20230;-90
2022/11/30 08:26:11;;;;;;;109.83;22.73;;;6.60;99.90;;;;;;5052756;28;20263;-91
2022/11/30 08:28:39;;;;;;;162.17;25.37;;;6.50;99.90;;;;;;5054430;28;20671;-93
2022/11/30 08:31:08;;;;;;;109.77;23.80;;;6.30;99.90;;;;;;5058631;28;20687;-90
2022/11/30 08:33:41;;;;;;;125.63;24.77;;;6.30;99.90;;;;;;5052388;28;20225;-86
2022/11/30 08:36:15;;;;;;;177.60;26.47;;;6.20;99.90;;;;;;5042346;28;20200;-87
2022/11/30 08:38:44;;;;;;;114.20;22.20;;;6.10;99.90;;;;;;5048758;28;20199;-85
2022/11/30 08:41:14;;;;;;;203.63;26.43;;;6.00;99.90;;;;;;5051481;28;20199;-90
2022/11/30 08:43:43;;;;;;;134.03;23.17;;;6.10;99.90;;;;;;5045174;28;20230;-83
2022/11/30 08:46:13;;;;;;;149.37;24.67;;;6.10;99.90;;;;;;5038409;28;20728;-87
2022/11/30 08:48:41;;;;;;;93.27;23.10;;;5.90;99.90;;;;;;5037055;28;20549;-87
2022/11/30 08:51:14;;;;;;;115.00;22.97;;;5.70;99.90;;;;;;5037452;28;20202;-83
2022/11/30 08:53:41;;;;;;;96.23;22.03;;;5.70;99.90;;;;;;5050777;28;20221;-88
2022/11/30 08:56:11;;;;;;;74.27;22.30;;;5.90;99.90;;;;;;5050740;28;20290;-85
2022/11/30 08:58:41;;;;;;;76.70;21.90;;;5.80;99.90;;;;;;5046464;28;20230;-87
2022/11/30 09:01:09;;;;;;;78.97;22.50;;;5.90;99.90;;;;;;5038922;28;20212;-87
2022/11/30 09:03:42;;;;;;;55.10;21.00;;;5.90;99.90;;;;;;5041807;28;20230;-86
2022/11/30 09:06:14;;;;;;;54.70;22.40;;;5.70;99.90;;;;;;5047505;28;20555;-91
2022/11/30 09:08:42;;;;;;;70.30;20.63;;;5.90;99.90;;;;;;5051244;28;20289;-88
2022/11/30 09:11:11;;;;;;;62.60;21.47;;;6.10;99.90;;;;;;5044713;28;20196;-87
2022/11/30 09:13:38;;;;;;;92.50;22.90;;;6.20;99.90;;;;;;5036122;28;20219;-88
2022/11/30 09:16:06;;;;;;;97.23;23.73;;;6.00;99.90;;;;;;5022628;28;20212;-87
2022/11/30 09:18:35;;;;;;;117.93;23.30;;;6.30;99.90;;;;;;5034332;28;20214;-88
2022/11/30 09:21:07;;;;;;;84.23;21.83;;;6.30;99.90;;;;;;5027070;28;20200;-81
2022/11/30 09:23:36;;;;;;;51.30;21.93;;;6.50;99.90;;;;;;5036040;28;20242;-82
2022/11/30 09:26:05;;;;;;;52.43;20.87;;;6.30;99.90;;;;;;5035971;28;20204;-83
2022/11/30 09:28:33;;;;;;;52.63;20.30;;;6.20;99.90;;;;;;5035728;28;20195;-80
2022/11/30 09:31:01;;;;;;;47.60;21.43;;;6.20;99.90;;;;;;5035697;28;20203;-82
2022/11/30 09:33:28;;;;;;;55.10;21.33;;;6.30;99.90;;;;;;5035506;28;20203;-82
2022/11/30 09:35:56;;;;;;;56.07;20.93;;;6.40;99.90;;;;;;5035540;28;20207;-82
2022/11/30 09:38:23;;;;;;;58.17;21.50;;;6.60;99.90;;;;;;5035387;28;20602;-80
2022/11/30 09:40:55;;;;;;;57.90;22.10;;;6.50;99.90;;;;;;5036684;28;20659;-89
2022/11/30 09:43:33;;;;;;;83.57;24.97;;;6.60;99.90;;;;;;5035047;28;20281;-83
2022/11/30 09:46:04;;;;;;;64.47;23.53;;;6.70;99.90;;;;;;5028663;28;20219;-83
2022/11/30 09:48:54;;;;;;;63.97;24.23;;;6.80;99.90;;;;;;5027275;28;20505;-84
2022/11/30 09:51:25;;;;;;;67.33;24.50;;;7.00;99.90;;;;;;5035658;28;20253;-80
2022/11/30 09:53:56;;;;;;;55.63;24.07;;;7.20;99.90;;;;;;5035323;28;20206;-80
2022/11/30 09:56:37;;;;;;;61.53;24.57;;;7.50;99.90;;;;;;5034878;28;20199;-82
2022/11/30 09:59:12;;;;;;;54.40;22.93;;;7.50;99.90;;;;;;5034731;28;20229;-84
2022/11/30 10:01:39;;;;;;;60.10;25.33;;;7.40;99.90;;;;;;5029688;28;20309;-81
2022/11/30 10:04:15;;;;;;;74.78;36.10;;;7.40;99.90;;;;;;5027548;28;20448;-83
2022/11/30 10:06:48;;;;;;;59.37;27.37;;;7.50;99.90;;;;;;5034553;28;20202;-82
2022/11/30 10:09:35;;;;;;;56.23;26.77;;;7.60;99.90;;;;;;5034644;28;20200;-82
2022/11/30 10:12:08;;;;;;;54.67;26.03;;;7.50;99.90;;;;;;5035069;28;20631;-82
2022/11/30 10:14:53;;;;;;;60.90;26.37;;;7.40;99.90;;;;;;5034545;28;20265;-81
2022/11/30 10:17:30;;;;;;;63.60;26.13;;;7.60;99.90;;;;;;5033974;28;20266;-88
2022/11/30 10:20:16;;;;;;;71.80;27.00;;;7.80;99.90;;;;;;5032943;28;20286;-82
2022/11/30 10:22:58;;;;;;;57.40;26.20;;;7.70;99.90;;;;;;5020731;28;20257;-85
2022/11/30 10:25:35;;;;;;;64.47;27.80;;;7.50;99.90;;;;;;5023274;28;20218;-87
2022/11/30 10:28:12;;;;;;;66.60;27.03;;;7.70;99.90;;;;;;5025446;28;20650;-84
2022/11/30 10:30:39;;;;;;;66.47;29.07;;;7.80;99.90;;;;;;5027228;28;20207;-83
2022/11/30 10:33:15;;;;;;;61.10;29.20;;;7.60;99.90;;;;;;5030735;28;20203;-83
2022/11/30 10:35:46;;;;;;;61.37;28.57;;;7.50;99.90;;;;;;5031638;28;20198;-85
2022/11/30 10:38:17;;;;;;;67.10;30.63;;;7.40;99.90;;;;;;5035707;28;20234;-86
2022/11/30 10:40:50;;;;;;;56.87;29.43;;;7.60;99.90;;;;;;5037064;28;20200;-87
2022/11/30 10:43:27;;;;;;;60.23;29.13;;;7.30;99.90;;;;;;5034828;28;20249;-87
2022/11/30 10:45:59;;;;;;;62.43;28.93;;;7.40;99.90;;;;;;5035114;28;20199;-84
2022/11/30 10:48:34;;;;;;;59.33;29.13;;;7.30;99.90;;;;;;5034552;28;20195;-83
2022/11/30 10:51:04;;;;;;;58.37;28.07;;;7.40;99.90;;;;;;5034169;28;20203;-85
2022/11/30 10:53:37;;;;;;;57.17;26.77;;;7.20;99.90;;;;;;5034474;28;20552;-88
2022/11/30 10:56:08;;;;;;;72.20;28.03;;;7.10;99.90;;;;;;5034126;28;20210;-85
2022/11/30 10:58:39;;;;;;;60.57;28.13;;;7.20;99.90;;;;;;5034357;28;20243;-87
2022/11/30 11:01:08;;;;;;;54.17;28.17;;;6.80;99.90;;;;;;5033827;28;20704;-84
2022/11/30 11:03:38;;;;;;;54.07;27.77;;;7.00;99.90;;;;;;5033464;28;20230;-85
2022/11/30 11:06:13;;;;;;;51.90;26.70;;;7.30;99.90;;;;;;5034487;28;20213;-88
2022/11/30 11:08:44;;;;;;;48.87;26.27;;;7.30;99.90;;;;;;5033861;28;20748;-86
2022/11/30 11:11:27;;;;;;;56.20;28.23;;;7.30;99.90;;;;;;5032620;28;20192;-87
2022/11/30 11:14:09;;;;;;;68.20;29.60;;;7.30;99.90;;;;;;5034187;28;20209;-87
2022/11/30 11:16:50;;;;;;;59.93;29.23;;;7.40;99.90;;;;;;5034147;28;20213;-85
2022/11/30 11:19:32;;;;;;;45.53;23.63;;;7.50;99.90;;;;;;5033638;28;20693;-85
2022/11/30 11:22:01;;;;;;;57.07;26.30;;;7.70;99.90;;;;;;5033783;28;20249;-85
2022/11/30 11:24:29;;;;;;;46.00;25.57;;;7.80;99.90;;;;;;5033436;28;20725;-86
2022/11/30 11:26:57;;;;;;;48.30;27.30;;;7.70;99.90;;;;;;5033380;28;20635;-86
2022/11/30 11:29:31;;;;;;;51.73;25.30;;;7.60;99.90;;;;;;5033633;28;20210;-87
2022/11/30 11:32:20;;;;;;;55.67;28.03;;;7.20;99.90;;;;;;5032248;28;20198;-86
2022/11/30 11:34:47;;;;;;;45.87;26.17;;;7.30;99.90;;;;;;5034073;28;20206;-83
2022/11/30 11:37:21;;;;;;;51.67;25.70;;;7.50;99.90;;;;;;5032720;28;20245;-83
2022/11/30 11:40:00;;;;;;;56.03;25.87;;;7.70;99.90;;;;;;5032065;28;20262;-82
2022/11/30 11:42:28;;;;;;;45.40;25.30;;;7.80;99.90;;;;;;5033160;28;20209;-83
2022/11/30 11:44:59;;;;;;;56.97;27.47;;;7.50;99.90;;;;;;5034985;28;20557;-84
2022/11/30 11:47:28;;;;;;;48.20;26.83;;;7.70;99.90;;;;;;5033431;28;20237;-82
2022/11/30 11:50:17;;;;;;;53.70;26.90;;;7.80;99.90;;;;;;5033733;28;20549;-83
2022/11/30 11:52:44;;;;;;;49.90;25.60;;;7.70;99.90;;;;;;5033565;28;20560;-82
2022/11/30 11:55:16;;;;;;;48.63;25.47;;;7.70;99.90;;;;;;5033412;28;20207;-83
2022/11/30 11:57:47;;;;;;;52.13;28.00;;;7.90;99.90;;;;;;5033543;28;20203;-83
2022/11/30 12:00:18;;;;;;;49.70;26.93;;;7.50;99.90;;;;;;5033492;28;20566;-82
2022/11/30 12:02:52;;;;;;;51.57;26.60;;;7.50;99.90;;;;;;5030100;28;20208;-84
2022/11/30 12:05:24;;;;;;;58.63;28.80;;;7.50;99.90;;;;;;5029220;28;20578;-80
2022/11/30 12:08:03;;;;;;;53.50;28.00;;;7.70;99.90;;;;;;5021652;28;20609;-83
2022/11/30 12:10:36;;;;;;;47.73;26.60;;;8.00;99.90;;;;;;5032381;28;20210;-85
2022/11/30 12:13:12;;;;;;;47.33;26.03;;;8.10;99.90;;;;;;5032693;28;20658;-81
2022/11/30 12:15:52;;;;;;;46.40;25.83;;;7.90;99.90;;;;;;5032551;28;20373;-81
2022/11/30 12:18:23;;;;;;;47.87;25.37;;;8.00;99.90;;;;;;5032564;28;20214;-81
2022/11/30 12:20:56;;;;;;;43.53;23.97;;;8.10;99.90;;;;;;5032387;28;20240;-80
2022/11/30 12:23:54;;;;;;;36.93;23.33;;;7.90;99.90;;;;;;5032596;28;20723;-83
2022/11/30 12:26:29;;;;;;;44.83;24.53;;;7.90;99.90;;;;;;5032929;28;20662;-82
2022/11/30 12:29:20;;;;;;;50.30;27.83;;;8.00;99.90;;;;;;5031955;28;20198;-83
2022/11/30 12:32:04;;;;;;;50.57;27.43;;;7.80;99.90;;;;;;5033045;28;20204;-85
2022/11/30 12:34:46;;;;;;;46.97;27.57;;;7.90;99.90;;;;;;5025804;28;20668;-92
2022/11/30 12:37:18;;;;;;;46.47;26.33;;;7.80;99.90;;;;;;5033031;28;20207;-91
2022/11/30 12:39:56;;;;;;;45.40;27.07;;;8.10;99.90;;;;;;5034484;28;20208;-89
2022/11/30 12:42:27;;;;;;;43.87;25.80;;;8.20;99.90;;;;;;5033166;28;20210;-84
2022/11/30 12:45:01;;;;;;;47.83;27.13;;;8.50;99.90;;;;;;5032498;28;20226;-79
2022/11/30 12:47:44;;;;;;;46.90;25.40;;;8.50;99.90;;;;;;5032834;28;20199;-82
2022/11/30 12:50:24;;;;;;;41.43;24.67;;;8.40;99.90;;;;;;5035776;28;20203;-80
2022/11/30 12:52:58;;;;;;;48.37;26.57;;;8.70;99.90;;;;;;5035728;28;20210;-81
2022/11/30 12:55:35;;;;;;;51.40;29.73;;;8.90;99.90;;;;;;5025189;28;20212;-76
2022/11/30 12:58:11;;;;;;;47.63;27.77;;;9.10;99.90;;;;;;5033853;28;20223;-74
2022/11/30 13:00:51;;;;;;;46.13;28.57;;;9.10;99.90;;;;;;5035504;28;20207;-74
2022/11/30 13:03:50;;;;;;;57.90;37.17;;;9.10;99.90;;;;;;5034109;28;21004;-81